sensor_id;sensor_type;location;lat;lon;timestamp;P1;durP1;ratioP1;P2;durP2;ratioP2
12425;SDS011;6277;49.824;9.562;2023-02-04T00:00:14;9.15;;;2.20;;
12425;SDS011;6277;49.824;9.562;2023-02-04T00:02:42;14.07;;;2.83;;
12425;SDS011;6277;49.824;9.562;2023-02-04T00:05:08;9.38;;;2.60;;
12425;SDS011;6277;49.824;9.562;2023-02-04T00:07:34;10.00;;;2.42;;
12425;SDS011;6277;49.824;9.562;2023-02-04T00:10:00;12.43;;;2.58;;
12425;SDS011;6277;49.824;9.562;2023-02-04T00:12:27;7.70;;;2.30;;
12425;SDS011;6277;49.824;9.562;2023-02-04T00:14:53;8.13;;;2.10;;
12425;SDS011;6277;49.824;9.562;2023-02-04T00:17:18;8.73;;;2.30;;
12425;SDS011;6277;49.824;9.562;2023-02-04T00:19:44;7.22;;;2.13;;
12425;SDS011;6277;49.824;9.562;2023-02-04T00:22:09;10.40;;;2.33;;
12425;SDS011;6277;49.824;9.562;2023-02-04T00:24:35;7.05;;;2.20;;
12425;SDS011;6277;49.824;9.562;2023-02-04T00:27:01;10.07;;;2.85;;
12425;SDS011;6277;49.824;9.562;2023-02-04T00:29:27;10.27;;;2.70;;
12425;SDS011;6277;49.824;9.562;2023-02-04T00:31:53;9.55;;;2.47;;
12425;SDS011;6277;49.824;9.562;2023-02-04T00:34:18;7.88;;;2.80;;
12425;SDS011;6277;49.824;9.562;2023-02-04T00:36:44;8.18;;;2.22;;
12425;SDS011;6277;49.824;9.562;2023-02-04T00:39:10;9.23;;;2.42;;
12425;SDS011;6277;49.824;9.562;2023-02-04T00:41:36;10.45;;;2.97;;
12425;SDS011;6277;49.824;9.562;2023-02-04T00:44:02;9.13;;;2.78;;
12425;SDS011;6277;49.824;9.562;2023-02-04T00:46:27;11.85;;;2.80;;
12425;SDS011;6277;49.824;9.562;2023-02-04T00:48:53;8.27;;;2.53;;
12425;SDS011;6277;49.824;9.562;2023-02-04T00:51:18;11.00;;;2.70;;
12425;SDS011;6277;49.824;9.562;2023-02-04T00:53:44;8.50;;;2.20;;
12425;SDS011;6277;49.824;9.562;2023-02-04T00:56:10;8.10;;;2.30;;
12425;SDS011;6277;49.824;9.562;2023-02-04T00:58:35;10.20;;;2.42;;
12425;SDS011;6277;49.824;9.562;2023-02-04T01:01:01;9.85;;;2.42;;
12425;SDS011;6277;49.824;9.562;2023-02-04T01:03:26;13.10;;;2.30;;
12425;SDS011;6277;49.824;9.562;2023-02-04T01:05:52;7.25;;;2.00;;
12425;SDS011;6277;49.824;9.562;2023-02-04T01:08:18;9.93;;;2.47;;
12425;SDS011;6277;49.824;9.562;2023-02-04T01:10:43;11.25;;;2.38;;
12425;SDS011;6277;49.824;9.562;2023-02-04T01:13:09;8.65;;;2.38;;
12425;SDS011;6277;49.824;9.562;2023-02-04T01:15:34;7.68;;;2.33;;
12425;SDS011;6277;49.824;9.562;2023-02-04T01:18:00;9.13;;;2.47;;
12425;SDS011;6277;49.824;9.562;2023-02-04T01:20:25;10.02;;;3.10;;
12425;SDS011;6277;49.824;9.562;2023-02-04T01:22:51;5.57;;;2.65;;
12425;SDS011;6277;49.824;9.562;2023-02-04T01:25:17;11.07;;;2.65;;
12425;SDS011;6277;49.824;9.562;2023-02-04T01:27:43;7.90;;;2.80;;
12425;SDS011;6277;49.824;9.562;2023-02-04T01:30:09;6.00;;;2.28;;
12425;SDS011;6277;49.824;9.562;2023-02-04T01:32:35;7.70;;;1.95;;
12425;SDS011;6277;49.824;9.562;2023-02-04T01:35:01;11.43;;;2.38;;
12425;SDS011;6277;49.824;9.562;2023-02-04T01:37:27;7.60;;;2.17;;
12425;SDS011;6277;49.824;9.562;2023-02-04T01:39:52;11.38;;;2.25;;
12425;SDS011;6277;49.824;9.562;2023-02-04T01:42:18;11.27;;;2.30;;
12425;SDS011;6277;49.824;9.562;2023-02-04T01:44:44;10.15;;;2.42;;
12425;SDS011;6277;49.824;9.562;2023-02-04T01:47:09;8.15;;;2.17;;
12425;SDS011;6277;49.824;9.562;2023-02-04T01:49:35;10.25;;;2.40;;
12425;SDS011;6277;49.824;9.562;2023-02-04T01:52:01;10.05;;;2.17;;
12425;SDS011;6277;49.824;9.562;2023-02-04T01:54:27;8.98;;;2.05;;
12425;SDS011;6277;49.824;9.562;2023-02-04T01:56:53;7.50;;;2.08;;
12425;SDS011;6277;49.824;9.562;2023-02-04T01:59:19;8.77;;;2.20;;
12425;SDS011;6277;49.824;9.562;2023-02-04T02:01:46;6.43;;;1.75;;
12425;SDS011;6277;49.824;9.562;2023-02-04T02:04:17;6.60;;;2.03;;
12425;SDS011;6277;49.824;9.562;2023-02-04T02:06:55;8.43;;;1.60;;
12425;SDS011;6277;49.824;9.562;2023-02-04T02:09:23;8.73;;;2.33;;
12425;SDS011;6277;49.824;9.562;2023-02-04T02:11:52;9.23;;;2.35;;
12425;SDS011;6277;49.824;9.562;2023-02-04T02:14:18;11.32;;;2.25;;
12425;SDS011;6277;49.824;9.562;2023-02-04T02:16:43;9.57;;;2.20;;
12425;SDS011;6277;49.824;9.562;2023-02-04T02:19:09;8.23;;;2.05;;
12425;SDS011;6277;49.824;9.562;2023-02-04T02:21:43;9.85;;;2.75;;
12425;SDS011;6277;49.824;9.562;2023-02-04T02:24:29;8.85;;;2.20;;
12425;SDS011;6277;49.824;9.562;2023-02-04T02:26:57;11.10;;;2.42;;
12425;SDS011;6277;49.824;9.562;2023-02-04T02:29:27;8.80;;;2.03;;
12425;SDS011;6277;49.824;9.562;2023-02-04T02:31:53;9.20;;;2.38;;
12425;SDS011;6277;49.824;9.562;2023-02-04T02:34:24;8.68;;;2.15;;
12425;SDS011;6277;49.824;9.562;2023-02-04T02:36:51;8.05;;;2.53;;
12425;SDS011;6277;49.824;9.562;2023-02-04T02:39:16;13.27;;;2.33;;
12425;SDS011;6277;49.824;9.562;2023-02-04T02:41:43;13.52;;;2.72;;
12425;SDS011;6277;49.824;9.562;2023-02-04T02:44:09;8.10;;;2.40;;
12425;SDS011;6277;49.824;9.562;2023-02-04T02:46:36;7.88;;;1.63;;
12425;SDS011;6277;49.824;9.562;2023-02-04T02:49:01;12.82;;;2.08;;
12425;SDS011;6277;49.824;9.562;2023-02-04T02:51:27;6.38;;;1.90;;
12425;SDS011;6277;49.824;9.562;2023-02-04T02:53:53;7.53;;;2.00;;
12425;SDS011;6277;49.824;9.562;2023-02-04T02:56:18;9.45;;;2.15;;
12425;SDS011;6277;49.824;9.562;2023-02-04T02:58:44;5.82;;;1.88;;
12425;SDS011;6277;49.824;9.562;2023-02-04T03:01:10;7.60;;;1.63;;
12425;SDS011;6277;49.824;9.562;2023-02-04T03:03:37;7.95;;;1.88;;
12425;SDS011;6277;49.824;9.562;2023-02-04T03:06:07;6.70;;;2.10;;
12425;SDS011;6277;49.824;9.562;2023-02-04T03:08:42;9.80;;;1.75;;
12425;SDS011;6277;49.824;9.562;2023-02-04T03:11:08;9.52;;;2.03;;
12425;SDS011;6277;49.824;9.562;2023-02-04T03:13:34;8.02;;;1.80;;
12425;SDS011;6277;49.824;9.562;2023-02-04T03:16:01;7.80;;;1.88;;
12425;SDS011;6277;49.824;9.562;2023-02-04T03:18:28;9.25;;;1.90;;
12425;SDS011;6277;49.824;9.562;2023-02-04T03:20:54;6.68;;;1.52;;
12425;SDS011;6277;49.824;9.562;2023-02-04T03:23:20;10.30;;;2.20;;
12425;SDS011;6277;49.824;9.562;2023-02-04T03:25:45;7.80;;;1.98;;
12425;SDS011;6277;49.824;9.562;2023-02-04T03:28:11;9.82;;;2.03;;
12425;SDS011;6277;49.824;9.562;2023-02-04T03:30:37;8.45;;;1.85;;
12425;SDS011;6277;49.824;9.562;2023-02-04T03:33:02;7.28;;;2.20;;
12425;SDS011;6277;49.824;9.562;2023-02-04T03:35:28;9.27;;;1.95;;
12425;SDS011;6277;49.824;9.562;2023-02-04T03:37:53;5.70;;;1.48;;
12425;SDS011;6277;49.824;9.562;2023-02-04T03:40:19;7.75;;;1.52;;
12425;SDS011;6277;49.824;9.562;2023-02-04T03:42:45;5.63;;;1.55;;
12425;SDS011;6277;49.824;9.562;2023-02-04T03:45:10;4.65;;;1.42;;
12425;SDS011;6277;49.824;9.562;2023-02-04T03:47:36;8.90;;;1.67;;
12425;SDS011;6277;49.824;9.562;2023-02-04T03:50:02;9.40;;;1.75;;
12425;SDS011;6277;49.824;9.562;2023-02-04T03:52:27;11.00;;;2.10;;
12425;SDS011;6277;49.824;9.562;2023-02-04T03:54:53;7.78;;;1.77;;
12425;SDS011;6277;49.824;9.562;2023-02-04T03:57:18;7.82;;;2.13;;
12425;SDS011;6277;49.824;9.562;2023-02-04T03:59:44;10.43;;;2.00;;
12425;SDS011;6277;49.824;9.562;2023-02-04T04:02:10;6.10;;;1.55;;
12425;SDS011;6277;49.824;9.562;2023-02-04T04:04:35;9.38;;;1.90;;
12425;SDS011;6277;49.824;9.562;2023-02-04T04:07:01;7.63;;;1.70;;
12425;SDS011;6277;49.824;9.562;2023-02-04T04:09:27;10.20;;;2.55;;
12425;SDS011;6277;49.824;9.562;2023-02-04T04:11:53;10.45;;;2.22;;
12425;SDS011;6277;49.824;9.562;2023-02-04T04:14:19;9.48;;;1.88;;
12425;SDS011;6277;49.824;9.562;2023-02-04T04:16:44;11.05;;;2.35;;
12425;SDS011;6277;49.824;9.562;2023-02-04T04:19:10;8.23;;;1.88;;
12425;SDS011;6277;49.824;9.562;2023-02-04T04:21:35;10.32;;;2.38;;
12425;SDS011;6277;49.824;9.562;2023-02-04T04:24:01;11.27;;;2.22;;
12425;SDS011;6277;49.824;9.562;2023-02-04T04:26:27;9.50;;;1.85;;
12425;SDS011;6277;49.824;9.562;2023-02-04T04:28:52;9.60;;;1.95;;
12425;SDS011;6277;49.824;9.562;2023-02-04T04:31:18;6.68;;;1.60;;
12425;SDS011;6277;49.824;9.562;2023-02-04T04:33:43;10.63;;;2.10;;
12425;SDS011;6277;49.824;9.562;2023-02-04T04:36:09;6.63;;;1.60;;
12425;SDS011;6277;49.824;9.562;2023-02-04T04:38:34;8.90;;;2.15;;
12425;SDS011;6277;49.824;9.562;2023-02-04T04:41:00;9.52;;;2.30;;
12425;SDS011;6277;49.824;9.562;2023-02-04T04:43:25;8.15;;;1.90;;
12425;SDS011;6277;49.824;9.562;2023-02-04T04:45:51;12.25;;;2.35;;
12425;SDS011;6277;49.824;9.562;2023-02-04T04:48:16;7.75;;;2.33;;
12425;SDS011;6277;49.824;9.562;2023-02-04T04:50:42;10.07;;;1.88;;
12425;SDS011;6277;49.824;9.562;2023-02-04T04:53:08;6.25;;;1.60;;
12425;SDS011;6277;49.824;9.562;2023-02-04T04:55:36;8.02;;;1.75;;
12425;SDS011;6277;49.824;9.562;2023-02-04T04:58:02;5.82;;;1.70;;
12425;SDS011;6277;49.824;9.562;2023-02-04T05:00:28;6.78;;;1.80;;
12425;SDS011;6277;49.824;9.562;2023-02-04T05:02:54;6.47;;;1.58;;
12425;SDS011;6277;49.824;9.562;2023-02-04T05:05:19;8.00;;;2.10;;
12425;SDS011;6277;49.824;9.562;2023-02-04T05:07:45;7.97;;;1.77;;
12425;SDS011;6277;49.824;9.562;2023-02-04T05:10:10;9.45;;;1.92;;
12425;SDS011;6277;49.824;9.562;2023-02-04T05:12:36;6.93;;;2.28;;
12425;SDS011;6277;49.824;9.562;2023-02-04T05:15:01;8.40;;;1.70;;
12425;SDS011;6277;49.824;9.562;2023-02-04T05:17:28;7.35;;;1.63;;
12425;SDS011;6277;49.824;9.562;2023-02-04T05:19:53;9.70;;;1.98;;
12425;SDS011;6277;49.824;9.562;2023-02-04T05:22:19;7.55;;;1.55;;
12425;SDS011;6277;49.824;9.562;2023-02-04T05:24:44;5.82;;;1.80;;
12425;SDS011;6277;49.824;9.562;2023-02-04T05:27:10;8.60;;;2.00;;
12425;SDS011;6277;49.824;9.562;2023-02-04T05:29:35;8.73;;;1.95;;
12425;SDS011;6277;49.824;9.562;2023-02-04T05:32:01;12.52;;;2.00;;
12425;SDS011;6277;49.824;9.562;2023-02-04T05:34:26;9.20;;;1.85;;
12425;SDS011;6277;49.824;9.562;2023-02-04T05:36:52;8.73;;;1.88;;
12425;SDS011;6277;49.824;9.562;2023-02-04T05:39:17;9.25;;;1.85;;
12425;SDS011;6277;49.824;9.562;2023-02-04T05:41:43;8.63;;;1.73;;
12425;SDS011;6277;49.824;9.562;2023-02-04T05:44:08;6.75;;;1.73;;
12425;SDS011;6277;49.824;9.562;2023-02-04T05:46:34;10.65;;;2.10;;
12425;SDS011;6277;49.824;9.562;2023-02-04T05:49:00;10.02;;;1.88;;
12425;SDS011;6277;49.824;9.562;2023-02-04T05:51:26;8.18;;;1.95;;
12425;SDS011;6277;49.824;9.562;2023-02-04T05:53:51;7.07;;;1.83;;
12425;SDS011;6277;49.824;9.562;2023-02-04T05:56:17;8.48;;;1.75;;
12425;SDS011;6277;49.824;9.562;2023-02-04T05:58:42;8.35;;;2.10;;
12425;SDS011;6277;49.824;9.562;2023-02-04T06:01:08;10.43;;;2.00;;
12425;SDS011;6277;49.824;9.562;2023-02-04T06:03:33;11.10;;;1.98;;
12425;SDS011;6277;49.824;9.562;2023-02-04T06:05:59;9.18;;;2.47;;
12425;SDS011;6277;49.824;9.562;2023-02-04T06:08:25;9.00;;;1.70;;
12425;SDS011;6277;49.824;9.562;2023-02-04T06:10:50;7.60;;;2.10;;
12425;SDS011;6277;49.824;9.562;2023-02-04T06:13:16;7.03;;;1.90;;
12425;SDS011;6277;49.824;9.562;2023-02-04T06:15:41;10.70;;;2.50;;
12425;SDS011;6277;49.824;9.562;2023-02-04T06:18:07;12.95;;;2.80;;
12425;SDS011;6277;49.824;9.562;2023-02-04T06:20:32;14.10;;;3.28;;
12425;SDS011;6277;49.824;9.562;2023-02-04T06:22:58;11.10;;;2.78;;
12425;SDS011;6277;49.824;9.562;2023-02-04T06:25:23;11.75;;;2.75;;
12425;SDS011;6277;49.824;9.562;2023-02-04T06:27:49;12.35;;;3.08;;
12425;SDS011;6277;49.824;9.562;2023-02-04T06:30:16;11.55;;;3.13;;
12425;SDS011;6277;49.824;9.562;2023-02-04T06:32:42;9.73;;;2.40;;
12425;SDS011;6277;49.824;9.562;2023-02-04T06:35:08;10.13;;;2.30;;
12425;SDS011;6277;49.824;9.562;2023-02-04T06:37:34;12.68;;;2.08;;
12425;SDS011;6277;49.824;9.562;2023-02-04T06:40:00;11.75;;;2.28;;
12425;SDS011;6277;49.824;9.562;2023-02-04T06:42:26;9.63;;;2.22;;
12425;SDS011;6277;49.824;9.562;2023-02-04T06:44:51;9.43;;;2.22;;
12425;SDS011;6277;49.824;9.562;2023-02-04T06:47:17;11.52;;;2.70;;
12425;SDS011;6277;49.824;9.562;2023-02-04T06:49:43;11.15;;;2.00;;
12425;SDS011;6277;49.824;9.562;2023-02-04T06:52:09;11.40;;;2.05;;
12425;SDS011;6277;49.824;9.562;2023-02-04T06:54:34;9.27;;;2.03;;
12425;SDS011;6277;49.824;9.562;2023-02-04T06:57:00;8.20;;;1.90;;
12425;SDS011;6277;49.824;9.562;2023-02-04T06:59:36;11.38;;;2.10;;
12425;SDS011;6277;49.824;9.562;2023-02-04T07:02:04;10.18;;;2.38;;
12425;SDS011;6277;49.824;9.562;2023-02-04T07:04:30;8.80;;;2.05;;
12425;SDS011;6277;49.824;9.562;2023-02-04T07:06:56;9.88;;;2.38;;
12425;SDS011;6277;49.824;9.562;2023-02-04T07:11:55;8.68;;;2.17;;
12425;SDS011;6277;49.824;9.562;2023-02-04T07:14:21;8.18;;;1.77;;
12425;SDS011;6277;49.824;9.562;2023-02-04T07:16:46;9.10;;;2.50;;
12425;SDS011;6277;49.824;9.562;2023-02-04T07:19:12;10.65;;;3.33;;
12425;SDS011;6277;49.824;9.562;2023-02-04T07:21:37;19.45;;;6.68;;
12425;SDS011;6277;49.824;9.562;2023-02-04T07:24:03;17.92;;;8.90;;
12425;SDS011;6277;49.824;9.562;2023-02-04T07:26:29;15.05;;;5.65;;
12425;SDS011;6277;49.824;9.562;2023-02-04T07:28:54;14.43;;;5.65;;
12425;SDS011;6277;49.824;9.562;2023-02-04T07:31:20;10.20;;;3.88;;
12425;SDS011;6277;49.824;9.562;2023-02-04T07:33:46;7.22;;;2.53;;
12425;SDS011;6277;49.824;9.562;2023-02-04T07:36:11;5.97;;;2.47;;
12425;SDS011;6277;49.824;9.562;2023-02-04T07:38:37;7.40;;;2.40;;
12425;SDS011;6277;49.824;9.562;2023-02-04T07:41:02;8.32;;;2.38;;
12425;SDS011;6277;49.824;9.562;2023-02-04T07:43:28;9.05;;;2.45;;
12425;SDS011;6277;49.824;9.562;2023-02-04T07:45:53;6.00;;;1.60;;
12425;SDS011;6277;49.824;9.562;2023-02-04T07:48:19;6.43;;;1.80;;
12425;SDS011;6277;49.824;9.562;2023-02-04T07:50:44;7.25;;;1.83;;
12425;SDS011;6277;49.824;9.562;2023-02-04T07:53:10;8.40;;;1.70;;
12425;SDS011;6277;49.824;9.562;2023-02-04T07:55:36;9.48;;;2.00;;
12425;SDS011;6277;49.824;9.562;2023-02-04T07:58:02;8.50;;;1.80;;
12425;SDS011;6277;49.824;9.562;2023-02-04T08:00:28;7.25;;;1.83;;
12425;SDS011;6277;49.824;9.562;2023-02-04T08:02:53;7.63;;;1.90;;
12425;SDS011;6277;49.824;9.562;2023-02-04T08:05:19;6.30;;;1.60;;
12425;SDS011;6277;49.824;9.562;2023-02-04T08:07:44;9.05;;;1.50;;
12425;SDS011;6277;49.824;9.562;2023-02-04T08:10:10;6.57;;;1.73;;
12425;SDS011;6277;49.824;9.562;2023-02-04T08:12:36;5.90;;;1.23;;
12425;SDS011;6277;49.824;9.562;2023-02-04T08:15:02;6.88;;;1.50;;
12425;SDS011;6277;49.824;9.562;2023-02-04T08:17:28;8.00;;;1.50;;
12425;SDS011;6277;49.824;9.562;2023-02-04T08:19:54;7.13;;;1.80;;
12425;SDS011;6277;49.824;9.562;2023-02-04T08:22:20;6.25;;;1.42;;
12425;SDS011;6277;49.824;9.562;2023-02-04T08:24:46;6.82;;;1.85;;
12425;SDS011;6277;49.824;9.562;2023-02-04T08:27:11;5.28;;;1.33;;
12425;SDS011;6277;49.824;9.562;2023-02-04T08:29:38;7.38;;;1.58;;
12425;SDS011;6277;49.824;9.562;2023-02-04T08:32:03;7.85;;;1.75;;
12425;SDS011;6277;49.824;9.562;2023-02-04T08:34:29;7.88;;;1.90;;
12425;SDS011;6277;49.824;9.562;2023-02-04T08:36:55;5.57;;;1.60;;
12425;SDS011;6277;49.824;9.562;2023-02-04T08:39:20;6.70;;;1.40;;
12425;SDS011;6277;49.824;9.562;2023-02-04T08:41:46;6.85;;;1.40;;
12425;SDS011;6277;49.824;9.562;2023-02-04T08:44:13;9.38;;;1.55;;
12425;SDS011;6277;49.824;9.562;2023-02-04T08:46:39;6.03;;;1.67;;
12425;SDS011;6277;49.824;9.562;2023-02-04T08:49:04;7.50;;;1.88;;
12425;SDS011;6277;49.824;9.562;2023-02-04T08:51:30;5.85;;;1.55;;
12425;SDS011;6277;49.824;9.562;2023-02-04T08:53:55;6.50;;;1.25;;
12425;SDS011;6277;49.824;9.562;2023-02-04T08:56:21;9.40;;;1.70;;
12425;SDS011;6277;49.824;9.562;2023-02-04T08:58:46;5.65;;;1.67;;
12425;SDS011;6277;49.824;9.562;2023-02-04T09:01:12;7.28;;;1.45;;
12425;SDS011;6277;49.824;9.562;2023-02-04T09:03:38;6.07;;;1.77;;
12425;SDS011;6277;49.824;9.562;2023-02-04T09:06:05;7.57;;;2.70;;
12425;SDS011;6277;49.824;9.562;2023-02-04T09:08:31;8.55;;;2.10;;
12425;SDS011;6277;49.824;9.562;2023-02-04T09:10:57;9.75;;;2.45;;
12425;SDS011;6277;49.824;9.562;2023-02-04T09:13:23;6.32;;;1.88;;
12425;SDS011;6277;49.824;9.562;2023-02-04T09:15:48;9.13;;;2.00;;
12425;SDS011;6277;49.824;9.562;2023-02-04T09:18:14;10.82;;;2.05;;
12425;SDS011;6277;49.824;9.562;2023-02-04T09:20:44;4.88;;;1.85;;
12425;SDS011;6277;49.824;9.562;2023-02-04T09:23:10;7.75;;;1.95;;
12425;SDS011;6277;49.824;9.562;2023-02-04T09:25:37;5.18;;;1.75;;
12425;SDS011;6277;49.824;9.562;2023-02-04T09:28:03;9.00;;;2.67;;
12425;SDS011;6277;49.824;9.562;2023-02-04T09:30:29;7.38;;;1.98;;
12425;SDS011;6277;49.824;9.562;2023-02-04T09:32:55;6.63;;;1.90;;
12425;SDS011;6277;49.824;9.562;2023-02-04T09:35:21;7.60;;;1.65;;
12425;SDS011;6277;49.824;9.562;2023-02-04T09:37:46;6.38;;;1.90;;
12425;SDS011;6277;49.824;9.562;2023-02-04T09:40:13;7.88;;;1.60;;
12425;SDS011;6277;49.824;9.562;2023-02-04T09:42:44;7.82;;;1.63;;
12425;SDS011;6277;49.824;9.562;2023-02-04T09:45:14;5.35;;;1.48;;
12425;SDS011;6277;49.824;9.562;2023-02-04T09:47:44;6.68;;;1.70;;
12425;SDS011;6277;49.824;9.562;2023-02-04T09:50:14;4.00;;;0.90;;
12425;SDS011;6277;49.824;9.562;2023-02-04T09:52:41;3.88;;;0.88;;
12425;SDS011;6277;49.824;9.562;2023-02-04T09:55:13;4.20;;;0.70;;
12425;SDS011;6277;49.824;9.562;2023-02-04T09:57:40;4.57;;;0.60;;
12425;SDS011;6277;49.824;9.562;2023-02-04T10:00:13;0.95;;;0.57;;
12425;SDS011;6277;49.824;9.562;2023-02-04T10:02:47;1.70;;;0.68;;
12425;SDS011;6277;49.824;9.562;2023-02-04T10:05:17;1.67;;;0.60;;
12425;SDS011;6277;49.824;9.562;2023-02-04T10:07:45;1.10;;;0.40;;
12425;SDS011;6277;49.824;9.562;2023-02-04T10:10:15;2.85;;;1.02;;
12425;SDS011;6277;49.824;9.562;2023-02-04T10:12:46;4.45;;;1.23;;
12425;SDS011;6277;49.824;9.562;2023-02-04T10:15:16;1.67;;;0.70;;
12425;SDS011;6277;49.824;9.562;2023-02-04T10:17:46;1.88;;;0.60;;
12425;SDS011;6277;49.824;9.562;2023-02-04T10:20:15;2.08;;;0.50;;
12425;SDS011;6277;49.824;9.562;2023-02-04T10:22:44;1.95;;;0.75;;
12425;SDS011;6277;49.824;9.562;2023-02-04T10:25:13;2.35;;;0.70;;
12425;SDS011;6277;49.824;9.562;2023-02-04T10:27:51;3.35;;;0.73;;
12425;SDS011;6277;49.824;9.562;2023-02-04T10:30:25;2.20;;;0.63;;
12425;SDS011;6277;49.824;9.562;2023-02-04T10:32:53;3.55;;;0.80;;
12425;SDS011;6277;49.824;9.562;2023-02-04T10:35:20;2.83;;;0.73;;
12425;SDS011;6277;49.824;9.562;2023-02-04T10:37:46;3.35;;;0.90;;
12425;SDS011;6277;49.824;9.562;2023-02-04T10:40:32;2.08;;;0.63;;
12425;SDS011;6277;49.824;9.562;2023-02-04T10:45:45;1.52;;;0.43;;
12425;SDS011;6277;49.824;9.562;2023-02-04T10:48:25;2.25;;;0.60;;
12425;SDS011;6277;49.824;9.562;2023-02-04T10:50:51;1.73;;;0.60;;
12425;SDS011;6277;49.824;9.562;2023-02-04T10:53:19;1.23;;;0.68;;
12425;SDS011;6277;49.824;9.562;2023-02-04T10:56:13;2.50;;;0.85;;
12425;SDS011;6277;49.824;9.562;2023-02-04T10:58:41;2.90;;;0.70;;
12425;SDS011;6277;49.824;9.562;2023-02-04T11:01:10;2.50;;;0.70;;
12425;SDS011;6277;49.824;9.562;2023-02-04T11:03:38;1.90;;;0.52;;
12425;SDS011;6277;49.824;9.562;2023-02-04T11:06:08;1.25;;;0.60;;
12425;SDS011;6277;49.824;9.562;2023-02-04T11:08:36;1.67;;;0.60;;
12425;SDS011;6277;49.824;9.562;2023-02-04T11:11:03;3.33;;;0.60;;
12425;SDS011;6277;49.824;9.562;2023-02-04T11:19:04;1.20;;;0.40;;
12425;SDS011;6277;49.824;9.562;2023-02-04T11:24:05;1.45;;;0.50;;
12425;SDS011;6277;49.824;9.562;2023-02-04T11:26:47;1.75;;;0.40;;
12425;SDS011;6277;49.824;9.562;2023-02-04T11:29:29;1.77;;;0.60;;
12425;SDS011;6277;49.824;9.562;2023-02-04T11:32:01;2.05;;;0.50;;
12425;SDS011;6277;49.824;9.562;2023-02-04T11:34:46;0.68;;;0.30;;
12425;SDS011;6277;49.824;9.562;2023-02-04T11:37:17;0.98;;;0.30;;
12425;SDS011;6277;49.824;9.562;2023-02-04T11:39:58;0.95;;;0.47;;
12425;SDS011;6277;49.824;9.562;2023-02-04T11:42:37;2.03;;;1.00;;
12425;SDS011;6277;49.824;9.562;2023-02-04T11:45:11;2.20;;;0.68;;
12425;SDS011;6277;49.824;9.562;2023-02-04T11:47:44;1.48;;;0.77;;
12425;SDS011;6277;49.824;9.562;2023-02-04T11:50:53;2.85;;;0.40;;
12425;SDS011;6277;49.824;9.562;2023-02-04T11:53:02;1.13;;;0.40;;
12425;SDS011;6277;49.824;9.562;2023-02-04T11:55:29;0.30;;;0.30;;
12425;SDS011;6277;49.824;9.562;2023-02-04T11:57:56;0.70;;;0.30;;
12425;SDS011;6277;49.824;9.562;2023-02-04T12:00:23;1.33;;;0.60;;
12425;SDS011;6277;49.824;9.562;2023-02-04T12:02:55;0.80;;;0.50;;
12425;SDS011;6277;49.824;9.562;2023-02-04T12:05:28;1.73;;;0.60;;
12425;SDS011;6277;49.824;9.562;2023-02-04T12:08:08;2.15;;;0.80;;
12425;SDS011;6277;49.824;9.562;2023-02-04T12:10:38;0.80;;;0.60;;
12425;SDS011;6277;49.824;9.562;2023-02-04T12:13:11;1.20;;;0.60;;
12425;SDS011;6277;49.824;9.562;2023-02-04T12:15:40;1.10;;;0.40;;
12425;SDS011;6277;49.824;9.562;2023-02-04T12:18:07;0.63;;;0.50;;
12425;SDS011;6277;49.824;9.562;2023-02-04T12:20:34;0.43;;;0.40;;
12425;SDS011;6277;49.824;9.562;2023-02-04T12:23:01;0.90;;;0.47;;
12425;SDS011;6277;49.824;9.562;2023-02-04T12:25:26;0.50;;;0.40;;
12425;SDS011;6277;49.824;9.562;2023-02-04T12:27:52;0.85;;;0.70;;
12425;SDS011;6277;49.824;9.562;2023-02-04T12:30:19;2.08;;;0.68;;
12425;SDS011;6277;49.824;9.562;2023-02-04T12:32:49;0.95;;;0.57;;
12425;SDS011;6277;49.824;9.562;2023-02-04T12:35:15;0.52;;;0.40;;
12425;SDS011;6277;49.824;9.562;2023-02-04T12:37:40;0.70;;;0.60;;
12425;SDS011;6277;49.824;9.562;2023-02-04T12:40:07;1.10;;;0.47;;
12425;SDS011;6277;49.824;9.562;2023-02-04T12:42:34;0.80;;;0.50;;
12425;SDS011;6277;49.824;9.562;2023-02-04T12:44:59;1.60;;;0.60;;
12425;SDS011;6277;49.824;9.562;2023-02-04T12:47:25;0.60;;;0.50;;
12425;SDS011;6277;49.824;9.562;2023-02-04T12:49:51;0.93;;;0.43;;
12425;SDS011;6277;49.824;9.562;2023-02-04T12:52:16;1.73;;;0.40;;
12425;SDS011;6277;49.824;9.562;2023-02-04T12:54:42;0.68;;;0.30;;
12425;SDS011;6277;49.824;9.562;2023-02-04T12:57:08;0.63;;;0.40;;
12425;SDS011;6277;49.824;9.562;2023-02-04T12:59:34;0.40;;;0.30;;
12425;SDS011;6277;49.824;9.562;2023-02-04T13:02:00;0.65;;;0.50;;
12425;SDS011;6277;49.824;9.562;2023-02-04T13:04:26;1.65;;;0.50;;
12425;SDS011;6277;49.824;9.562;2023-02-04T13:06:51;0.73;;;0.45;;
12425;SDS011;6277;49.824;9.562;2023-02-04T13:09:17;0.55;;;0.38;;
12425;SDS011;6277;49.824;9.562;2023-02-04T13:11:42;1.00;;;0.63;;
12425;SDS011;6277;49.824;9.562;2023-02-04T13:14:08;1.00;;;0.50;;
12425;SDS011;6277;49.824;9.562;2023-02-04T13:16:33;1.83;;;0.63;;
12425;SDS011;6277;49.824;9.562;2023-02-04T13:18:59;0.73;;;0.43;;
12425;SDS011;6277;49.824;9.562;2023-02-04T13:21:24;0.93;;;0.40;;
12425;SDS011;6277;49.824;9.562;2023-02-04T13:23:50;1.00;;;0.50;;
12425;SDS011;6277;49.824;9.562;2023-02-04T13:26:15;0.60;;;0.30;;
12425;SDS011;6277;49.824;9.562;2023-02-04T13:28:41;0.95;;;0.35;;
12425;SDS011;6277;49.824;9.562;2023-02-04T13:31:06;0.60;;;0.40;;
12425;SDS011;6277;49.824;9.562;2023-02-04T13:33:32;1.00;;;0.45;;
12425;SDS011;6277;49.824;9.562;2023-02-04T13:35:57;0.73;;;0.50;;
12425;SDS011;6277;49.824;9.562;2023-02-04T13:38:23;0.35;;;0.30;;
12425;SDS011;6277;49.824;9.562;2023-02-04T13:40:49;0.93;;;0.40;;
12425;SDS011;6277;49.824;9.562;2023-02-04T13:43:15;0.40;;;0.30;;
12425;SDS011;6277;49.824;9.562;2023-02-04T13:45:41;1.20;;;0.65;;
12425;SDS011;6277;49.824;9.562;2023-02-04T13:48:11;0.75;;;0.38;;
12425;SDS011;6277;49.824;9.562;2023-02-04T13:50:37;0.50;;;0.35;;
12425;SDS011;6277;49.824;9.562;2023-02-04T13:53:03;0.40;;;0.40;;
12425;SDS011;6277;49.824;9.562;2023-02-04T13:55:29;0.70;;;0.40;;
12425;SDS011;6277;49.824;9.562;2023-02-04T13:57:54;0.40;;;0.40;;
12425;SDS011;6277;49.824;9.562;2023-02-04T14:00:20;0.40;;;0.30;;
12425;SDS011;6277;49.824;9.562;2023-02-04T14:02:46;0.93;;;0.43;;
12425;SDS011;6277;49.824;9.562;2023-02-04T14:05:12;1.30;;;0.60;;
12425;SDS011;6277;49.824;9.562;2023-02-04T14:07:38;0.60;;;0.40;;
12425;SDS011;6277;49.824;9.562;2023-02-04T14:10:04;1.20;;;0.50;;
12425;SDS011;6277;49.824;9.562;2023-02-04T14:12:30;0.50;;;0.40;;
12425;SDS011;6277;49.824;9.562;2023-02-04T14:14:56;1.38;;;0.43;;
12425;SDS011;6277;49.824;9.562;2023-02-04T14:17:21;0.60;;;0.40;;
12425;SDS011;6277;49.824;9.562;2023-02-04T14:19:47;0.82;;;0.40;;
12425;SDS011;6277;49.824;9.562;2023-02-04T14:22:12;0.40;;;0.40;;
12425;SDS011;6277;49.824;9.562;2023-02-04T14:24:38;0.98;;;0.88;;
12425;SDS011;6277;49.824;9.562;2023-02-04T14:27:06;0.82;;;0.63;;
12425;SDS011;6277;49.824;9.562;2023-02-04T14:29:34;2.50;;;1.88;;
12425;SDS011;6277;49.824;9.562;2023-02-04T14:32:00;1.30;;;1.20;;
12425;SDS011;6277;49.824;9.562;2023-02-04T14:34:26;2.05;;;1.10;;
12425;SDS011;6277;49.824;9.562;2023-02-04T14:36:51;1.30;;;1.10;;
12425;SDS011;6277;49.824;9.562;2023-02-04T14:39:17;5.70;;;2.88;;
12425;SDS011;6277;49.824;9.562;2023-02-04T14:41:42;4.57;;;2.08;;
12425;SDS011;6277;49.824;9.562;2023-02-04T14:44:08;5.32;;;1.85;;
12425;SDS011;6277;49.824;9.562;2023-02-04T14:46:34;2.70;;;1.10;;
12425;SDS011;6277;49.824;9.562;2023-02-04T14:49:00;2.17;;;1.10;;
12425;SDS011;6277;49.824;9.562;2023-02-04T14:51:25;1.77;;;0.80;;
12425;SDS011;6277;49.824;9.562;2023-02-04T14:53:51;1.55;;;0.80;;
12425;SDS011;6277;49.824;9.562;2023-02-04T14:56:17;2.00;;;0.60;;
12425;SDS011;6277;49.824;9.562;2023-02-04T14:58:43;0.60;;;0.30;;
12425;SDS011;6277;49.824;9.562;2023-02-04T15:01:09;1.30;;;0.40;;
12425;SDS011;6277;49.824;9.562;2023-02-04T15:03:34;1.67;;;0.60;;
12425;SDS011;6277;49.824;9.562;2023-02-04T15:06:00;2.63;;;1.45;;
12425;SDS011;6277;49.824;9.562;2023-02-04T15:08:26;1.73;;;1.00;;